Flight Track Log - Related Links

Times and Time Zones

All times are in EDT time to prevent confusion due to time zone crossing. See the SVA1466 flight status page for this flight to view local times or setup timezone preferences in your user account.

Time Position Orientation Groundspeed Altitude Reporting Facility
EDT Latitude Longitude Course Direction KTS MPH feet Rate Location/Type
Thu 07:42:00 AM 22.0084 39.2181 10° North  Level Estimated
Thu 07:43:00 AM 22.0906 39.2336 10° North  Level Estimated
Thu 07:44:00 AM 22.1728 39.2490 10° North  Level Estimated
Thu 07:45:00 AM 22.2550 39.2645 10° North  Level Estimated
Thu 07:46:00 AM 22.3372 39.2800 10° North  Level Estimated
Thu 07:47:00 AM 22.4194 39.2955 10° North  Level Estimated
Thu 07:48:00 AM 22.5016 39.3110 10° North  Level Estimated
Thu 07:49:00 AM 22.5838 39.3266 10° North  Level Estimated
Thu 07:50:00 AM 22.6660 39.3422 10° North  Level Estimated
Thu 07:51:00 AM 22.7482 39.3577 10° North  Level Estimated
Thu 07:52:00 AM 22.8304 39.3733 10° North  Level Estimated
Thu 07:53:00 AM 22.9126 39.3890 10° North  Level Estimated
Thu 07:54:00 AM 22.9948 39.4046 10° North  Level Estimated
Thu 07:55:00 AM 23.0770 39.4203 10° North  Level Estimated
Thu 07:56:00 AM 23.1591 39.4360 10° North  Level Estimated
Thu 07:57:00 AM 23.2413 39.4517 10° North  Level Estimated
Thu 07:58:00 AM 23.3235 39.4674 10° North  Level Estimated
Thu 07:59:00 AM 23.4057 39.4831 10° North  Level Estimated
Thu 08:00:00 AM 23.4879 39.4989 10° North  Level Estimated
Thu 08:01:00 AM 23.5700 39.5146 10° North  Level Estimated
Thu 08:02:00 AM 23.6522 39.5304 10° North  Level Estimated
Thu 08:03:00 AM 23.7344 39.5463 10° North  Level Estimated
Thu 08:04:00 AM 23.8166 39.5621 10° North  Level Estimated
Thu 08:05:00 AM 23.8987 39.5780 10° North  Level Estimated
Thu 08:06:00 AM 23.9809 39.5938 10° North  Level Estimated
Thu 08:07:00 AM 24.0631 39.6097 10° North  Level Estimated
Thu 08:08:00 AM 24.1452 39.6257 10° North  Level Estimated
Thu 08:09:00 AM 24.2274 39.6416 10° North  Level Estimated
Thu 08:10:00 AM 24.3096 39.6576 10° North  Level Estimated
Thu 08:11:00 AM 24.3917 39.6735 10° North  Level Estimated
Thu 08:12:00 AM 24.4739 39.6895 10° North  Level Estimated
Thu 08:13:00 AM 24.5534 39.7051 10° North  Level Estimated

Login

Don't have an account? Register now (free) for customized features, flight alerts, and more!